Terminal Aerodrome Forecast
Issued by NWS

Home | Current Version | Previous Version | Text Only | Print | Product List | Glossary On
Versions: 1 2 3 4 5 6 7 8 9 10 11 12 13
951
FTUS43 KJKL 242320
TAFSME
TAF
KSME 242320Z 2500/2524 06004KT P6SM BKN040
     FM250600 00000KT 3SM BR BKN035
     FM250900 00000KT 1SM BR SCT008 BKN030
     FM251200 00000KT P6SM SCT050=

USA.gov is the U.S. government's official web portal to all federal, state and local government web resources and services.